Airfield :
LOGIN :

Register | Disclaimer

   EN    FR    IT 

 










Legend :    VFR   Marginal VFR   IFR   Intensive IFR   Very Intensive IFR
Visi :
Ceiling :
>= 8 km
>= 3000ft
5 to 8 km
1000 to 3000 ft
1500m to 5 km
500 to 1000 ft
800 to 1500m
200 to 500 ft
< 800m
< 200 ft
Symbols :   Thunderstorms  Fog  Heavy snow  Heavy precipitations  Wind > 20 kt
SIGMETs :     Misc.  Thunderstorms  Icing  Turbulence  Mountain Waves  Volcanic Ashes







- Airport Elevation : 53 ft
- IATA code : AGP


LEMG - Malaga

CURRENT METAR :
  • 201730Z 14006KT 110V190 9999 FEW025 26/21 Q1016 NOSIG

EXPIRED METARs :
  • 201700Z 13008KT 110V170 9999 FEW025 27/21 Q1016 NOSIG
  • 201630Z 12008KT 090V160 9999 FEW025 27/21 Q1016 NOSIG
  • 201600Z 14009KT 110V170 9999 FEW025 27/21 Q1017 NOSIG
  • 201530Z 13008KT 090V190 9999 FEW025 28/20 Q1017 NOSIG
  • 201500Z 15008KT 110V180 9999 FEW025 28/19 Q1017 NOSIG

TAF TAF LEMG
Valid from the 20 at 18:00 until the 21 at 18:00 UTC


201700Z 2018/2118 13009KT 9999 FEW025 TX30/2113Z TN23/2106Z
BECMG 2020/2022 VRB03KT
BECMG 2100/2102 29005KT
BECMG 2109/2111 13008KT
No reported NOTAMs for that airfield.
1 SIGMET reported for the Madrid FIR (LECM) :
 
Embedded thunderstorms
LECM SIGMET 2 VALID 201630/201830 LEVA
LECM MADRID FIR/UIR EMBD TS OBS AT 1614Z W OF LINE N3716 W00416 - N3855 W00415 TOP FL400 MOV NE NC=



MET'MAP, your aeronautical weather chart ! - Copyright ORBIFLY December 2007 - Disclaimer

ORBIFLY MET'MAP TEAM :

Programming & Development : Alexandra Zaïnal
Concept & Development : Baudouin d'Aumeries
Co-Development & Prog : Marc-Olivier Méhu
Technical & hardware support : Manuel Goepfert

Contact : metmap@orbifly.com




SOURCES & CREDITS :

   NOAA